sensor_id;sensor_type;location;lat;lon;timestamp;temperature;humidity
20594;DHT22;10455;48.732;10.266;2022-09-11T00:03:02;13.30;99.90
20594;DHT22;10455;48.732;10.266;2022-09-11T00:08:07;13.50;99.90
20594;DHT22;10455;48.732;10.266;2022-09-11T00:13:11;13.50;99.90
20594;DHT22;10455;48.732;10.266;2022-09-11T00:18:15;13.50;99.90
20594;DHT22;10455;48.732;10.266;2022-09-11T00:23:25;13.50;99.90
20594;DHT22;10455;48.732;10.266;2022-09-11T00:28:28;13.50;99.90
20594;DHT22;10455;48.732;10.266;2022-09-11T00:33:30;13.50;99.90
20594;DHT22;10455;48.732;10.266;2022-09-11T00:38:36;13.60;99.90
20594;DHT22;10455;48.732;10.266;2022-09-11T00:43:56;13.60;99.90
20594;DHT22;10455;48.732;10.266;2022-09-11T00:49:00;13.60;99.90
20594;DHT22;10455;48.732;10.266;2022-09-11T00:54:05;13.60;99.90
20594;DHT22;10455;48.732;10.266;2022-09-11T00:59:11;13.50;99.90
20594;DHT22;10455;48.732;10.266;2022-09-11T01:04:13;13.60;99.90
20594;DHT22;10455;48.732;10.266;2022-09-11T01:09:17;13.50;99.90
20594;DHT22;10455;48.732;10.266;2022-09-11T01:14:31;13.40;99.90
20594;DHT22;10455;48.732;10.266;2022-09-11T01:19:52;13.60;99.90
20594;DHT22;10455;48.732;10.266;2022-09-11T01:25:09;13.60;99.90
20594;DHT22;10455;48.732;10.266;2022-09-11T01:30:22;13.70;99.90
20594;DHT22;10455;48.732;10.266;2022-09-11T01:35:34;13.80;99.90
20594;DHT22;10455;48.732;10.266;2022-09-11T01:40:44;13.80;99.90
20594;DHT22;10455;48.732;10.266;2022-09-11T01:45:51;13.70;99.90
20594;DHT22;10455;48.732;10.266;2022-09-11T01:50:54;13.80;99.90
20594;DHT22;10455;48.732;10.266;2022-09-11T01:56:00;13.80;99.90
20594;DHT22;10455;48.732;10.266;2022-09-11T02:01:08;13.80;99.90
20594;DHT22;10455;48.732;10.266;2022-09-11T02:06:15;13.80;99.90
20594;DHT22;10455;48.732;10.266;2022-09-11T02:11:19;13.70;99.90
20594;DHT22;10455;48.732;10.266;2022-09-11T02:16:31;13.60;99.90
20594;DHT22;10455;48.732;10.266;2022-09-11T02:21:35;13.70;99.90
20594;DHT22;10455;48.732;10.266;2022-09-11T02:26:40;13.80;99.90
20594;DHT22;10455;48.732;10.266;2022-09-11T02:31:44;13.90;99.90
20594;DHT22;10455;48.732;10.266;2022-09-11T02:37:07;13.70;99.90
20594;DHT22;10455;48.732;10.266;2022-09-11T02:42:38;13.60;99.90
20594;DHT22;10455;48.732;10.266;2022-09-11T02:47:53;13.70;99.90
20594;DHT22;10455;48.732;10.266;2022-09-11T02:53:02;13.60;99.90
20594;DHT22;10455;48.732;10.266;2022-09-11T02:58:08;13.50;99.90
20594;DHT22;10455;48.732;10.266;2022-09-11T03:03:14;13.60;99.90
20594;DHT22;10455;48.732;10.266;2022-09-11T03:08:17;13.70;99.90
20594;DHT22;10455;48.732;10.266;2022-09-11T03:13:19;13.70;99.90
20594;DHT22;10455;48.732;10.266;2022-09-11T03:18:23;13.70;99.90
20594;DHT22;10455;48.732;10.266;2022-09-11T03:23:25;13.80;99.90
20594;DHT22;10455;48.732;10.266;2022-09-11T03:28:27;13.80;99.90
20594;DHT22;10455;48.732;10.266;2022-09-11T03:33:32;13.80;99.90
20594;DHT22;10455;48.732;10.266;2022-09-11T03:38:34;13.70;99.90
20594;DHT22;10455;48.732;10.266;2022-09-11T03:43:37;13.80;99.90
20594;DHT22;10455;48.732;10.266;2022-09-11T03:48:40;13.80;99.90
20594;DHT22;10455;48.732;10.266;2022-09-11T03:53:43;13.80;99.90
20594;DHT22;10455;48.732;10.266;2022-09-11T03:58:45;13.70;99.90
20594;DHT22;10455;48.732;10.266;2022-09-11T04:03:49;13.70;99.90
20594;DHT22;10455;48.732;10.266;2022-09-11T04:08:51;13.80;99.90
20594;DHT22;10455;48.732;10.266;2022-09-11T04:13:53;13.70;99.90
20594;DHT22;10455;48.732;10.266;2022-09-11T04:18:58;13.60;99.90
20594;DHT22;10455;48.732;10.266;2022-09-11T04:24:01;13.80;99.90
20594;DHT22;10455;48.732;10.266;2022-09-11T04:29:03;13.70;99.90
20594;DHT22;10455;48.732;10.266;2022-09-11T04:34:07;13.70;99.90
20594;DHT22;10455;48.732;10.266;2022-09-11T04:39:09;13.70;99.90
20594;DHT22;10455;48.732;10.266;2022-09-11T04:44:12;13.70;99.90
20594;DHT22;10455;48.732;10.266;2022-09-11T04:49:15;13.80;99.90
20594;DHT22;10455;48.732;10.266;2022-09-11T04:54:18;13.70;99.90
20594;DHT22;10455;48.732;10.266;2022-09-11T04:59:22;13.90;99.90
20594;DHT22;10455;48.732;10.266;2022-09-11T05:04:26;13.80;99.90
20594;DHT22;10455;48.732;10.266;2022-09-11T05:09:28;13.90;99.90
20594;DHT22;10455;48.732;10.266;2022-09-11T05:14:30;14.00;99.90
20594;DHT22;10455;48.732;10.266;2022-09-11T05:19:34;14.10;99.90
20594;DHT22;10455;48.732;10.266;2022-09-11T05:24:36;14.00;99.90
20594;DHT22;10455;48.732;10.266;2022-09-11T05:29:39;14.20;99.90
20594;DHT22;10455;48.732;10.266;2022-09-11T05:34:43;14.20;99.90
20594;DHT22;10455;48.732;10.266;2022-09-11T05:39:45;14.10;99.90
20594;DHT22;10455;48.732;10.266;2022-09-11T05:44:47;14.20;99.90
20594;DHT22;10455;48.732;10.266;2022-09-11T05:49:50;14.30;99.90
20594;DHT22;10455;48.732;10.266;2022-09-11T05:54:52;14.30;99.90
20594;DHT22;10455;48.732;10.266;2022-09-11T05:59:55;14.40;99.90
20594;DHT22;10455;48.732;10.266;2022-09-11T06:04:58;14.40;99.90
20594;DHT22;10455;48.732;10.266;2022-09-11T06:10:00;14.40;99.90
20594;DHT22;10455;48.732;10.266;2022-09-11T06:15:03;14.50;99.90
20594;DHT22;10455;48.732;10.266;2022-09-11T06:20:07;14.50;99.90
20594;DHT22;10455;48.732;10.266;2022-09-11T06:25:12;14.60;99.90
20594;DHT22;10455;48.732;10.266;2022-09-11T06:30:14;14.80;99.90
20594;DHT22;10455;48.732;10.266;2022-09-11T06:35:18;14.80;99.90
20594;DHT22;10455;48.732;10.266;2022-09-11T06:40:20;14.90;99.90
20594;DHT22;10455;48.732;10.266;2022-09-11T06:45:22;15.10;99.90
20594;DHT22;10455;48.732;10.266;2022-09-11T06:50:26;15.20;99.90
20594;DHT22;10455;48.732;10.266;2022-09-11T06:55:29;15.30;99.90
20594;DHT22;10455;48.732;10.266;2022-09-11T07:00:33;15.70;99.90
20594;DHT22;10455;48.732;10.266;2022-09-11T07:05:37;16.00;99.90
20594;DHT22;10455;48.732;10.266;2022-09-11T07:10:40;16.20;99.90
20594;DHT22;10455;48.732;10.266;2022-09-11T07:15:42;16.60;99.90
20594;DHT22;10455;48.732;10.266;2022-09-11T07:20:46;16.70;99.90
20594;DHT22;10455;48.732;10.266;2022-09-11T07:25:48;16.40;99.90
20594;DHT22;10455;48.732;10.266;2022-09-11T07:30:50;16.50;99.90
20594;DHT22;10455;48.732;10.266;2022-09-11T07:35:53;16.10;99.90
20594;DHT22;10455;48.732;10.266;2022-09-11T07:40:56;15.90;99.90
20594;DHT22;10455;48.732;10.266;2022-09-11T07:45:58;16.50;99.90
20594;DHT22;10455;48.732;10.266;2022-09-11T07:51:03;16.90;99.90
20594;DHT22;10455;48.732;10.266;2022-09-11T07:56:07;17.10;99.90
20594;DHT22;10455;48.732;10.266;2022-09-11T08:01:15;17.30;99.90
20594;DHT22;10455;48.732;10.266;2022-09-11T08:06:19;17.70;99.90
20594;DHT22;10455;48.732;10.266;2022-09-11T08:11:24;18.40;99.90
20594;DHT22;10455;48.732;10.266;2022-09-11T08:16:26;18.70;99.90
20594;DHT22;10455;48.732;10.266;2022-09-11T08:21:31;18.30;99.90
20594;DHT22;10455;48.732;10.266;2022-09-11T08:26:35;18.10;99.90
20594;DHT22;10455;48.732;10.266;2022-09-11T08:31:38;18.60;99.90
20594;DHT22;10455;48.732;10.266;2022-09-11T08:36:41;18.70;99.90
20594;DHT22;10455;48.732;10.266;2022-09-11T08:41:45;19.50;99.90
20594;DHT22;10455;48.732;10.266;2022-09-11T08:46:52;19.40;99.90
20594;DHT22;10455;48.732;10.266;2022-09-11T08:51:59;19.70;99.90
20594;DHT22;10455;48.732;10.266;2022-09-11T08:57:13;20.20;99.90
20594;DHT22;10455;48.732;10.266;2022-09-11T09:02:28;19.80;99.90
20594;DHT22;10455;48.732;10.266;2022-09-11T09:07:42;19.30;99.90
20594;DHT22;10455;48.732;10.266;2022-09-11T09:12:51;18.40;99.90
20594;DHT22;10455;48.732;10.266;2022-09-11T09:17:56;17.80;99.90
20594;DHT22;10455;48.732;10.266;2022-09-11T09:23:05;18.00;99.90
20594;DHT22;10455;48.732;10.266;2022-09-11T09:28:16;18.30;99.90
20594;DHT22;10455;48.732;10.266;2022-09-11T09:33:26;18.80;99.90
20594;DHT22;10455;48.732;10.266;2022-09-11T09:38:31;18.70;99.90
20594;DHT22;10455;48.732;10.266;2022-09-11T09:43:42;18.50;99.90
20594;DHT22;10455;48.732;10.266;2022-09-11T09:48:48;18.70;99.90
20594;DHT22;10455;48.732;10.266;2022-09-11T09:53:54;19.30;99.90
20594;DHT22;10455;48.732;10.266;2022-09-11T09:59:00;19.30;99.90
20594;DHT22;10455;48.732;10.266;2022-09-11T10:04:08;20.20;99.90
20594;DHT22;10455;48.732;10.266;2022-09-11T10:09:23;21.60;99.90
20594;DHT22;10455;48.732;10.266;2022-09-11T10:14:25;22.00;99.90
20594;DHT22;10455;48.732;10.266;2022-09-11T10:19:39;21.30;99.90
20594;DHT22;10455;48.732;10.266;2022-09-11T10:24:43;21.10;99.90
20594;DHT22;10455;48.732;10.266;2022-09-11T10:29:47;21.60;99.90
20594;DHT22;10455;48.732;10.266;2022-09-11T10:34:51;23.30;99.90
20594;DHT22;10455;48.732;10.266;2022-09-11T10:40:01;24.20;99.90
20594;DHT22;10455;48.732;10.266;2022-09-11T10:45:11;23.90;99.90
20594;DHT22;10455;48.732;10.266;2022-09-11T10:50:23;24.70;99.90
20594;DHT22;10455;48.732;10.266;2022-09-11T10:55:29;23.70;99.90
20594;DHT22;10455;48.732;10.266;2022-09-11T11:00:33;24.20;99.90
20594;DHT22;10455;48.732;10.266;2022-09-11T11:05:45;26.20;99.90
20594;DHT22;10455;48.732;10.266;2022-09-11T11:11:08;24.80;99.90
20594;DHT22;10455;48.732;10.266;2022-09-11T11:16:19;22.70;99.90
20594;DHT22;10455;48.732;10.266;2022-09-11T11:21:34;21.00;99.90
20594;DHT22;10455;48.732;10.266;2022-09-11T11:26:51;21.00;99.90
20594;DHT22;10455;48.732;10.266;2022-09-11T11:32:09;23.10;99.90
20594;DHT22;10455;48.732;10.266;2022-09-11T11:37:17;22.90;99.90
20594;DHT22;10455;48.732;10.266;2022-09-11T11:42:24;23.50;99.90
20594;DHT22;10455;48.732;10.266;2022-09-11T11:47:31;24.50;99.90
20594;DHT22;10455;48.732;10.266;2022-09-11T11:52:42;24.10;99.90
20594;DHT22;10455;48.732;10.266;2022-09-11T11:58:06;24.50;99.90
20594;DHT22;10455;48.732;10.266;2022-09-11T12:03:19;25.10;99.90
20594;DHT22;10455;48.732;10.266;2022-09-11T12:08:23;26.80;99.90
20594;DHT22;10455;48.732;10.266;2022-09-11T12:13:29;27.50;99.90
20594;DHT22;10455;48.732;10.266;2022-09-11T12:18:32;26.60;99.90
20594;DHT22;10455;48.732;10.266;2022-09-11T12:29:54;25.10;99.90
20594;DHT22;10455;48.732;10.266;2022-09-11T12:35:02;24.40;99.90
20594;DHT22;10455;48.732;10.266;2022-09-11T12:40:18;24.20;99.90
20594;DHT22;10455;48.732;10.266;2022-09-11T12:45:33;24.20;99.90
20594;DHT22;10455;48.732;10.266;2022-09-11T12:50:36;24.40;99.90
20594;DHT22;10455;48.732;10.266;2022-09-11T12:55:40;23.90;99.90
20594;DHT22;10455;48.732;10.266;2022-09-11T13:00:47;23.40;99.90
20594;DHT22;10455;48.732;10.266;2022-09-11T13:05:54;23.50;99.90
20594;DHT22;10455;48.732;10.266;2022-09-11T13:16:34;22.60;99.90
20594;DHT22;10455;48.732;10.266;2022-09-11T13:21:38;22.30;99.90
20594;DHT22;10455;48.732;10.266;2022-09-11T13:26:41;22.50;99.90
20594;DHT22;10455;48.732;10.266;2022-09-11T13:31:45;22.90;99.90
20594;DHT22;10455;48.732;10.266;2022-09-11T13:36:47;23.00;99.90
20594;DHT22;10455;48.732;10.266;2022-09-11T13:41:53;23.50;99.90
20594;DHT22;10455;48.732;10.266;2022-09-11T13:46:58;23.90;99.90
20594;DHT22;10455;48.732;10.266;2022-09-11T13:52:03;23.80;99.90
20594;DHT22;10455;48.732;10.266;2022-09-11T13:57:14;23.70;99.90
20594;DHT22;10455;48.732;10.266;2022-09-11T14:02:43;23.50;99.90
20594;DHT22;10455;48.732;10.266;2022-09-11T14:07:54;23.70;99.90
20594;DHT22;10455;48.732;10.266;2022-09-11T14:13:02;24.00;99.90
20594;DHT22;10455;48.732;10.266;2022-09-11T14:18:12;25.40;99.90
20594;DHT22;10455;48.732;10.266;2022-09-11T14:23:19;28.00;99.90
20594;DHT22;10455;48.732;10.266;2022-09-11T14:28:44;29.60;97.80
20594;DHT22;10455;48.732;10.266;2022-09-11T14:34:09;31.30;93.20
20594;DHT22;10455;48.732;10.266;2022-09-11T14:39:14;31.30;90.20
20594;DHT22;10455;48.732;10.266;2022-09-11T14:44:19;31.20;90.60
20594;DHT22;10455;48.732;10.266;2022-09-11T14:49:23;30.60;90.60
20594;DHT22;10455;48.732;10.266;2022-09-11T14:54:26;28.20;93.10
20594;DHT22;10455;48.732;10.266;2022-09-11T14:59:30;25.60;95.70
20594;DHT22;10455;48.732;10.266;2022-09-11T15:04:34;24.80;99.00
20594;DHT22;10455;48.732;10.266;2022-09-11T15:09:36;24.60;99.90
20594;DHT22;10455;48.732;10.266;2022-09-11T15:14:38;25.40;98.70
20594;DHT22;10455;48.732;10.266;2022-09-11T15:19:42;25.10;99.90
20594;DHT22;10455;48.732;10.266;2022-09-11T15:24:49;24.30;99.90
20594;DHT22;10455;48.732;10.266;2022-09-11T15:29:52;23.70;99.90
20594;DHT22;10455;48.732;10.266;2022-09-11T15:34:56;22.90;99.90
20594;DHT22;10455;48.732;10.266;2022-09-11T15:40:00;22.50;99.90
20594;DHT22;10455;48.732;10.266;2022-09-11T15:45:04;22.30;99.90
20594;DHT22;10455;48.732;10.266;2022-09-11T15:50:08;22.00;99.90
20594;DHT22;10455;48.732;10.266;2022-09-11T15:55:11;21.80;99.90
20594;DHT22;10455;48.732;10.266;2022-09-11T16:00:14;21.30;99.90
20594;DHT22;10455;48.732;10.266;2022-09-11T16:05:18;21.20;99.90
20594;DHT22;10455;48.732;10.266;2022-09-11T16:10:21;20.40;99.90
20594;DHT22;10455;48.732;10.266;2022-09-11T16:15:23;20.10;99.90
20594;DHT22;10455;48.732;10.266;2022-09-11T16:20:27;20.30;99.90
20594;DHT22;10455;48.732;10.266;2022-09-11T16:25:29;20.20;99.90
20594;DHT22;10455;48.732;10.266;2022-09-11T16:30:31;20.40;99.90
20594;DHT22;10455;48.732;10.266;2022-09-11T16:35:35;21.00;99.90
20594;DHT22;10455;48.732;10.266;2022-09-11T16:40:37;20.80;99.90
20594;DHT22;10455;48.732;10.266;2022-09-11T16:45:41;20.70;99.90
20594;DHT22;10455;48.732;10.266;2022-09-11T16:50:52;20.90;99.90
20594;DHT22;10455;48.732;10.266;2022-09-11T16:55:55;20.80;99.90
20594;DHT22;10455;48.732;10.266;2022-09-11T17:00:57;20.60;99.90
20594;DHT22;10455;48.732;10.266;2022-09-11T17:06:00;20.30;99.90
20594;DHT22;10455;48.732;10.266;2022-09-11T17:11:03;19.90;99.90
20594;DHT22;10455;48.732;10.266;2022-09-11T17:16:12;19.50;99.90
20594;DHT22;10455;48.732;10.266;2022-09-11T17:21:16;19.10;99.90
20594;DHT22;10455;48.732;10.266;2022-09-11T17:26:18;18.90;99.90
20594;DHT22;10455;48.732;10.266;2022-09-11T17:31:20;18.70;99.90
20594;DHT22;10455;48.732;10.266;2022-09-11T17:36:24;18.30;99.90
20594;DHT22;10455;48.732;10.266;2022-09-11T17:41:26;17.80;99.90
20594;DHT22;10455;48.732;10.266;2022-09-11T17:46:29;17.20;99.90
20594;DHT22;10455;48.732;10.266;2022-09-11T17:51:33;16.80;99.90
20594;DHT22;10455;48.732;10.266;2022-09-11T17:56:36;16.40;99.90
20594;DHT22;10455;48.732;10.266;2022-09-11T18:01:38;16.10;99.90
20594;DHT22;10455;48.732;10.266;2022-09-11T18:06:42;15.90;99.90
20594;DHT22;10455;48.732;10.266;2022-09-11T18:11:46;15.70;99.90
20594;DHT22;10455;48.732;10.266;2022-09-11T18:16:49;15.50;99.90
20594;DHT22;10455;48.732;10.266;2022-09-11T18:21:53;15.20;99.90
20594;DHT22;10455;48.732;10.266;2022-09-11T18:26:55;14.80;99.90
20594;DHT22;10455;48.732;10.266;2022-09-11T18:31:57;14.60;99.90
20594;DHT22;10455;48.732;10.266;2022-09-11T18:37:01;14.30;99.90
20594;DHT22;10455;48.732;10.266;2022-09-11T18:42:03;14.10;99.90
20594;DHT22;10455;48.732;10.266;2022-09-11T18:47:07;13.90;99.90
20594;DHT22;10455;48.732;10.266;2022-09-11T18:52:10;13.70;99.90
20594;DHT22;10455;48.732;10.266;2022-09-11T18:57:14;13.50;99.90
20594;DHT22;10455;48.732;10.266;2022-09-11T19:02:16;13.40;99.90
20594;DHT22;10455;48.732;10.266;2022-09-11T19:07:19;13.20;99.90
20594;DHT22;10455;48.732;10.266;2022-09-11T19:12:22;13.00;99.90
20594;DHT22;10455;48.732;10.266;2022-09-11T19:17:25;12.90;99.90
20594;DHT22;10455;48.732;10.266;2022-09-11T19:22:29;12.80;99.90
20594;DHT22;10455;48.732;10.266;2022-09-11T19:27:31;12.60;99.90
20594;DHT22;10455;48.732;10.266;2022-09-11T19:32:33;12.40;99.90
20594;DHT22;10455;48.732;10.266;2022-09-11T19:37:37;12.30;99.90
20594;DHT22;10455;48.732;10.266;2022-09-11T19:42:39;12.10;99.90
20594;DHT22;10455;48.732;10.266;2022-09-11T19:47:41;12.00;99.90
20594;DHT22;10455;48.732;10.266;2022-09-11T19:52:45;11.90;99.90
20594;DHT22;10455;48.732;10.266;2022-09-11T19:57:47;11.70;99.90
20594;DHT22;10455;48.732;10.266;2022-09-11T20:02:49;11.70;99.90
20594;DHT22;10455;48.732;10.266;2022-09-11T20:07:53;11.60;99.90
20594;DHT22;10455;48.732;10.266;2022-09-11T20:12:55;11.50;99.90
20594;DHT22;10455;48.732;10.266;2022-09-11T20:17:58;11.40;99.90
20594;DHT22;10455;48.732;10.266;2022-09-11T20:23:02;11.40;99.90
20594;DHT22;10455;48.732;10.266;2022-09-11T20:28:04;11.30;99.90
20594;DHT22;10455;48.732;10.266;2022-09-11T20:33:10;11.20;99.90
20594;DHT22;10455;48.732;10.266;2022-09-11T20:38:14;11.10;99.90
20594;DHT22;10455;48.732;10.266;2022-09-11T20:43:17;11.10;99.90
20594;DHT22;10455;48.732;10.266;2022-09-11T20:48:19;11.00;99.90
20594;DHT22;10455;48.732;10.266;2022-09-11T20:53:22;10.90;99.90
20594;DHT22;10455;48.732;10.266;2022-09-11T20:58:25;10.80;99.90
20594;DHT22;10455;48.732;10.266;2022-09-11T21:03:27;10.80;99.90
20594;DHT22;10455;48.732;10.266;2022-09-11T21:08:31;10.90;99.90
20594;DHT22;10455;48.732;10.266;2022-09-11T21:13:34;10.80;99.90
20594;DHT22;10455;48.732;10.266;2022-09-11T21:18:38;10.70;99.90
20594;DHT22;10455;48.732;10.266;2022-09-11T21:23:41;10.50;99.90
20594;DHT22;10455;48.732;10.266;2022-09-11T21:28:44;10.40;99.90
20594;DHT22;10455;48.732;10.266;2022-09-11T21:33:46;10.30;99.90
20594;DHT22;10455;48.732;10.266;2022-09-11T21:38:49;10.30;99.90
20594;DHT22;10455;48.732;10.266;2022-09-11T21:43:52;10.20;99.90
20594;DHT22;10455;48.732;10.266;2022-09-11T21:48:54;10.10;99.90
20594;DHT22;10455;48.732;10.266;2022-09-11T21:53:58;10.00;99.90
20594;DHT22;10455;48.732;10.266;2022-09-11T21:59:01;9.90;99.90
20594;DHT22;10455;48.732;10.266;2022-09-11T22:04:03;9.90;99.90
20594;DHT22;10455;48.732;10.266;2022-09-11T22:09:07;9.90;99.90
20594;DHT22;10455;48.732;10.266;2022-09-11T22:14:09;9.70;99.90
20594;DHT22;10455;48.732;10.266;2022-09-11T22:19:11;9.80;99.90
20594;DHT22;10455;48.732;10.266;2022-09-11T22:24:15;9.70;99.90
20594;DHT22;10455;48.732;10.266;2022-09-11T22:29:19;9.70;99.90
20594;DHT22;10455;48.732;10.266;2022-09-11T22:34:21;9.60;99.90
20594;DHT22;10455;48.732;10.266;2022-09-11T22:39:24;9.60;99.90
20594;DHT22;10455;48.732;10.266;2022-09-11T22:44:27;9.60;99.90
20594;DHT22;10455;48.732;10.266;2022-09-11T22:49:29;9.50;99.90
20594;DHT22;10455;48.732;10.266;2022-09-11T22:54:32;9.50;99.90
20594;DHT22;10455;48.732;10.266;2022-09-11T22:59:34;9.50;99.90
20594;DHT22;10455;48.732;10.266;2022-09-11T23:04:36;9.40;99.90
20594;DHT22;10455;48.732;10.266;2022-09-11T23:09:40;9.40;99.90
20594;DHT22;10455;48.732;10.266;2022-09-11T23:14:42;9.40;99.90
20594;DHT22;10455;48.732;10.266;2022-09-11T23:19:45;9.40;99.90
20594;DHT22;10455;48.732;10.266;2022-09-11T23:24:49;9.30;99.90
20594;DHT22;10455;48.732;10.266;2022-09-11T23:29:51;9.20;99.90
20594;DHT22;10455;48.732;10.266;2022-09-11T23:34:53;9.20;99.90
20594;DHT22;10455;48.732;10.266;2022-09-11T23:39:56;9.10;99.90
20594;DHT22;10455;48.732;10.266;2022-09-11T23:44:58;9.10;99.90
20594;DHT22;10455;48.732;10.266;2022-09-11T23:50:01;9.00;99.90
20594;DHT22;10455;48.732;10.266;2022-09-11T23:55:05;9.10;99.90
